Time;durP1;ratioP1;P1;durP2;ratioP2;P2;SDS_P1;SDS_P2;PMS_P1;PMS_P2;Temp;Humidity;BMP_temperature;BMP_pressure;BME280_temperature;BME280_humidity;BME280_pressure;Samples;Min_cycle;Max_cycle;Signal;HPM_P1;HPM_P2
2023/05/13 00:01:43;;;;;;;12.95;11.35;;;;;;;;;;4957204;28;20411;-84
2023/05/13 00:04:10;;;;;;;15.50;10.32;;;;;;;;;;4974993;28;20066;-85
2023/05/13 00:06:38;;;;;;;13.65;10.52;;;;;;;;;;4974557;28;20492;-85
2023/05/13 00:09:05;;;;;;;12.32;9.52;;;;;;;;;;4957228;28;20046;-85
2023/05/13 00:11:33;;;;;;;18.27;10.32;;;;;;;;;;4957571;28;20058;-85
2023/05/13 00:14:00;;;;;;;14.77;10.38;;;;;;;;;;4957181;28;20051;-85
2023/05/13 00:16:28;;;;;;;13.30;10.55;;;;;;;;;;4974118;28;20051;-85
2023/05/13 00:18:55;;;;;;;14.77;10.35;;;;;;;;;;4957078;28;20055;-85
2023/05/13 00:21:22;;;;;;;16.58;11.05;;;;;;;;;;4956717;28;20057;-85
2023/05/13 00:23:49;;;;;;;13.32;10.82;;;;;;;;;;4957382;28;20137;-85
2023/05/13 00:26:17;;;;;;;14.10;11.90;;;;;;;;;;4957188;28;20057;-85
2023/05/13 00:28:44;;;;;;;21.75;14.38;;;;;;;;;;4956947;28;20086;-85
2023/05/13 00:31:11;;;;;;;33.20;18.48;;;;;;;;;;4956916;28;20053;-85
2023/05/13 00:33:38;;;;;;;21.88;17.30;;;;;;;;;;4956998;28;20507;-85
2023/05/13 00:36:08;;;;;;;32.83;19.63;;;;;;;;;;4956961;28;20057;-85
2023/05/13 00:38:36;;;;;;;20.48;15.55;;;;;;;;;;4956685;28;20513;-85
2023/05/13 00:41:04;;;;;;;17.63;14.35;;;;;;;;;;4957022;28;20047;-86
2023/05/13 00:43:31;;;;;;;37.10;17.02;;;;;;;;;;4956727;28;20059;-86
2023/05/13 00:45:58;;;;;;;20.27;15.98;;;;;;;;;;4956857;28;20472;-85
2023/05/13 00:48:26;;;;;;;27.85;18.75;;;;;;;;;;4973695;28;20054;-86
2023/05/13 00:50:53;;;;;;;19.42;15.68;;;;;;;;;;4956971;28;20636;-86
2023/05/13 00:53:21;;;;;;;26.92;16.23;;;;;;;;;;4973944;28;20053;-85
2023/05/13 00:55:48;;;;;;;27.67;16.95;;;;;;;;;;4973744;28;20051;-86
2023/05/13 00:58:16;;;;;;;29.33;18.48;;;;;;;;;;4956562;28;20086;-86
2023/05/13 01:00:51;;;;;;;36.60;21.55;;;;;;;;;;4956827;28;20534;-86
2023/05/13 01:03:21;;;;;;;30.95;19.20;;;;;;;;;;4956944;28;20043;-86
2023/05/13 01:05:58;;;;;;;35.15;19.85;;;;;;;;;;4956499;28;20079;-85
2023/05/13 01:08:51;;;;;;;23.98;16.60;;;;;;;;;;4956764;28;20078;-86
2023/05/13 01:11:21;;;;;;;31.95;18.23;;;;;;;;;;4928112;28;20054;-85
2023/05/13 01:13:51;;;;;;;19.50;14.07;;;;;;;;;;4956701;28;20055;-85
2023/05/13 01:16:21;;;;;;;14.55;12.85;;;;;;;;;;4957221;28;20456;-86
2023/05/13 01:18:52;;;;;;;19.42;13.73;;;;;;;;;;4956575;28;20484;-86
2023/05/13 01:21:25;;;;;;;14.32;11.85;;;;;;;;;;4973709;28;20121;-85
2023/05/13 01:23:52;;;;;;;16.50;13.48;;;;;;;;;;4956885;28;20054;-86
2023/05/13 01:26:20;;;;;;;15.52;11.70;;;;;;;;;;4956671;28;20089;-86
2023/05/13 01:28:47;;;;;;;20.20;12.52;;;;;;;;;;4973856;28;20046;-86
2023/05/13 01:31:15;;;;;;;16.38;12.60;;;;;;;;;;4973303;28;20537;-85
2023/05/13 01:33:42;;;;;;;11.13;10.02;;;;;;;;;;4974528;28;20051;-86
2023/05/13 01:36:10;;;;;;;12.80;11.27;;;;;;;;;;4976975;28;20070;-85
2023/05/13 01:38:38;;;;;;;12.13;10.98;;;;;;;;;;4976806;28;20487;-84
2023/05/13 01:41:05;;;;;;;13.07;11.38;;;;;;;;;;4959898;28;20061;-85
2023/05/13 01:43:33;;;;;;;12.27;11.00;;;;;;;;;;4977131;28;20086;-85
2023/05/13 01:46:00;;;;;;;12.57;10.95;;;;;;;;;;4959559;28;20228;-85
2023/05/13 01:48:28;;;;;;;13.07;10.68;;;;;;;;;;4959512;28;20066;-85
2023/05/13 01:50:55;;;;;;;14.05;10.65;;;;;;;;;;4959713;28;20054;-85
2023/05/13 01:53:22;;;;;;;11.13;10.00;;;;;;;;;;4959753;28;20046;-85
2023/05/13 01:55:50;;;;;;;10.68;9.68;;;;;;;;;;4959576;28;20047;-85
2023/05/13 01:58:17;;;;;;;10.02;9.07;;;;;;;;;;4976920;28;20054;-86
2023/05/13 02:00:44;;;;;;;10.40;9.32;;;;;;;;;;4959263;28;20074;-85
2023/05/13 02:03:12;;;;;;;9.90;8.90;;;;;;;;;;4959430;28;20053;-85
2023/05/13 02:05:39;;;;;;;12.65;9.05;;;;;;;;;;4959257;28;20407;-85
2023/05/13 02:08:06;;;;;;;9.48;8.50;;;;;;;;;;4959172;28;20054;-85
2023/05/13 02:10:33;;;;;;;11.93;9.50;;;;;;;;;;4976400;28;20303;-86
2023/05/13 02:13:01;;;;;;;11.82;10.48;;;;;;;;;;4959319;28;20331;-85
2023/05/13 02:15:28;;;;;;;13.55;10.18;;;;;;;;;;4958744;28;20154;-85
2023/05/13 02:17:55;;;;;;;9.82;8.77;;;;;;;;;;4976196;28;20051;-85
2023/05/13 02:20:23;;;;;;;10.10;9.10;;;;;;;;;;4959035;28;20274;-86
2023/05/13 02:22:50;;;;;;;12.95;9.82;;;;;;;;;;4958933;28;20065;-86
2023/05/13 02:25:17;;;;;;;10.65;9.55;;;;;;;;;;4958630;28;20494;-85
2023/05/13 02:27:45;;;;;;;12.95;11.00;;;;;;;;;;4958357;28;20051;-86
2023/05/13 02:30:12;;;;;;;10.30;8.88;;;;;;;;;;4975749;28;20396;-86
2023/05/13 02:32:42;;;;;;;11.52;10.13;;;;;;;;;;4976451;28;20507;-85
2023/05/13 02:35:10;;;;;;;12.32;10.73;;;;;;;;;;4976363;28;20117;-85
2023/05/13 02:37:37;;;;;;;13.50;11.02;;;;;;;;;;4958800;28;20054;-85
2023/05/13 02:40:04;;;;;;;16.90;11.50;;;;;;;;;;4958440;28;20050;-85
2023/05/13 02:42:31;;;;;;;13.82;10.77;;;;;;;;;;4958838;28;20427;-85
2023/05/13 02:44:59;;;;;;;10.75;9.63;;;;;;;;;;4975066;28;20514;-87
2023/05/13 02:47:26;;;;;;;11.40;9.02;;;;;;;;;;4958582;28;20042;-86
2023/05/13 02:49:54;;;;;;;11.48;8.98;;;;;;;;;;4975681;28;20051;-86
2023/05/13 02:52:22;;;;;;;12.55;9.57;;;;;;;;;;4958991;28;20050;-86
2023/05/13 02:54:49;;;;;;;10.63;9.27;;;;;;;;;;4958244;28;20054;-86
2023/05/13 02:57:16;;;;;;;10.27;9.27;;;;;;;;;;4958458;28;20175;-86
2023/05/13 02:59:43;;;;;;;10.77;9.63;;;;;;;;;;4958570;28;20057;-86
2023/05/13 03:02:11;;;;;;;10.13;9.13;;;;;;;;;;4958572;28;20073;-86
2023/05/13 03:04:40;;;;;;;11.35;9.38;;;;;;;;;;4958466;28;20463;-86
2023/05/13 03:07:07;;;;;;;9.45;8.50;;;;;;;;;;4958201;28;20047;-86
2023/05/13 03:09:34;;;;;;;11.23;8.35;;;;;;;;;;4958115;28;20058;-86
2023/05/13 03:12:01;;;;;;;10.23;8.38;;;;;;;;;;4958270;28;20141;-86
2023/05/13 03:14:28;;;;;;;9.30;8.40;;;;;;;;;;4975250;28;20553;-86
2023/05/13 03:16:56;;;;;;;7.88;7.10;;;;;;;;;;4958035;28;20133;-85
2023/05/13 03:19:23;;;;;;;8.82;7.32;;;;;;;;;;4958015;28;20051;-85
2023/05/13 03:21:50;;;;;;;11.00;7.82;;;;;;;;;;4957810;28;20392;-84
2023/05/13 03:24:18;;;;;;;10.80;8.23;;;;;;;;;;4957770;28;20051;-86
2023/05/13 03:26:45;;;;;;;8.88;8.02;;;;;;;;;;4958103;28;20149;-85
2023/05/13 03:29:12;;;;;;;10.50;8.45;;;;;;;;;;4957840;28;20046;-86
2023/05/13 03:31:39;;;;;;;9.38;8.48;;;;;;;;;;4957948;28;20050;-86
2023/05/13 03:34:06;;;;;;;9.52;8.48;;;;;;;;;;4974745;28;20050;-85
2023/05/13 03:36:34;;;;;;;9.20;8.23;;;;;;;;;;4957578;28;20054;-85
2023/05/13 03:39:01;;;;;;;10.82;8.10;;;;;;;;;;4957314;28;20219;-86
2023/05/13 03:41:28;;;;;;;9.38;8.38;;;;;;;;;;4974947;28;20057;-86
2023/05/13 03:43:55;;;;;;;9.10;8.30;;;;;;;;;;4974837;28;20046;-86
2023/05/13 03:46:23;;;;;;;14.98;8.20;;;;;;;;;;4957654;28;20459;-86
2023/05/13 03:48:50;;;;;;;9.48;8.30;;;;;;;;;;4958226;28;20051;-85
2023/05/13 03:51:17;;;;;;;10.52;9.45;;;;;;;;;;4957572;28;20564;-86
2023/05/13 03:53:44;;;;;;;11.20;10.00;;;;;;;;;;4974698;28;20057;-86
2023/05/13 03:56:12;;;;;;;12.90;9.82;;;;;;;;;;4956806;28;20062;-86
2023/05/13 03:58:39;;;;;;;10.52;9.50;;;;;;;;;;4957653;28;20506;-86
2023/05/13 04:01:06;;;;;;;10.73;9.63;;;;;;;;;;4957208;28;20059;-86
2023/05/13 04:03:34;;;;;;;9.88;8.98;;;;;;;;;;4957185;28;20043;-86
2023/05/13 04:06:01;;;;;;;14.23;10.55;;;;;;;;;;4957222;28;20213;-86
2023/05/13 04:08:28;;;;;;;11.25;10.05;;;;;;;;;;4974498;28;20049;-86
2023/05/13 04:10:56;;;;;;;11.75;10.10;;;;;;;;;;4957012;28;20407;-86
2023/05/13 04:13:23;;;;;;;16.13;10.20;;;;;;;;;;4957329;28;20381;-86
2023/05/13 04:15:50;;;;;;;9.80;8.90;;;;;;;;;;4956928;28;20051;-86
2023/05/13 04:18:17;;;;;;;11.80;9.23;;;;;;;;;;4974096;28;20058;-86
2023/05/13 04:20:45;;;;;;;9.93;8.93;;;;;;;;;;4957040;28;20146;-85
2023/05/13 04:23:12;;;;;;;8.93;8.02;;;;;;;;;;4957274;28;20054;-86
2023/05/13 04:25:41;;;;;;;8.77;7.70;;;;;;;;;;4974284;28;20518;-86
2023/05/13 04:28:08;;;;;;;9.30;8.40;;;;;;;;;;4956919;28;20133;-86
2023/05/13 04:30:35;;;;;;;9.02;8.13;;;;;;;;;;4956763;28;20061;-85
2023/05/13 04:33:03;;;;;;;9.68;8.32;;;;;;;;;;4956954;28;20051;-86
2023/05/13 04:35:30;;;;;;;10.40;7.65;;;;;;;;;;4956884;28;20065;-85
2023/05/13 04:38:00;;;;;;;8.98;7.78;;;;;;;;;;4957145;28;20484;-86
2023/05/13 04:40:27;;;;;;;8.27;7.47;;;;;;;;;;4956724;28;20384;-86
2023/05/13 04:42:54;;;;;;;10.02;7.07;;;;;;;;;;4956707;28;20117;-86
2023/05/13 04:45:22;;;;;;;7.43;6.82;;;;;;;;;;4973852;28;20422;-85
2023/05/13 04:47:49;;;;;;;7.28;6.60;;;;;;;;;;4973886;28;20086;-86
2023/05/13 04:50:17;;;;;;;6.75;6.15;;;;;;;;;;4956965;28;20054;-85
2023/05/13 04:52:46;;;;;;;6.72;6.13;;;;;;;;;;4956808;28;20047;-86
2023/05/13 04:55:13;;;;;;;6.80;6.22;;;;;;;;;;4956351;28;20070;-86
2023/05/13 04:57:40;;;;;;;5.43;5.03;;;;;;;;;;4956510;28;20057;-86
2023/05/13 05:00:08;;;;;;;6.63;6.00;;;;;;;;;;4973547;28;20051;-86
2023/05/13 05:02:35;;;;;;;8.25;5.78;;;;;;;;;;4957490;28;20522;-86
2023/05/13 05:05:02;;;;;;;5.75;5.25;;;;;;;;;;4958114;28;20114;-85
2023/05/13 05:07:30;;;;;;;8.02;7.25;;;;;;;;;;4974720;28;20050;-86
2023/05/13 05:09:57;;;;;;;8.30;7.50;;;;;;;;;;4960525;28;20410;-85
2023/05/13 05:12:24;;;;;;;8.45;5.78;;;;;;;;;;4977446;28;20483;-86
2023/05/13 05:14:52;;;;;;;8.90;7.97;;;;;;;;;;4960508;28;20065;-86
2023/05/13 05:17:19;;;;;;;10.07;8.05;;;;;;;;;;4960593;28;20555;-85
2023/05/13 05:19:46;;;;;;;13.27;8.88;;;;;;;;;;4960670;28;20050;-85
2023/05/13 05:22:13;;;;;;;8.23;7.10;;;;;;;;;;4977520;28;20051;-86
2023/05/13 05:24:41;;;;;;;5.80;5.30;;;;;;;;;;4977525;28;20584;-86
2023/05/13 05:27:08;;;;;;;4.75;4.40;;;;;;;;;;4959653;28;20054;-86
2023/05/13 05:29:35;;;;;;;6.10;5.05;;;;;;;;;;4960334;28;20047;-86
2023/05/13 05:32:02;;;;;;;5.57;4.93;;;;;;;;;;4959914;28;20054;-86
2023/05/13 05:34:29;;;;;;;4.55;4.20;;;;;;;;;;4960333;28;20058;-86
2023/05/13 05:36:56;;;;;;;4.80;3.97;;;;;;;;;;4960237;28;20512;-86
2023/05/13 05:39:24;;;;;;;4.40;4.10;;;;;;;;;;4959731;28;20507;-86
2023/05/13 05:41:51;;;;;;;4.53;4.22;;;;;;;;;;4960156;28;20050;-86
2023/05/13 05:44:18;;;;;;;4.20;4.00;;;;;;;;;;4960231;28;20077;-86
2023/05/13 05:46:45;;;;;;;4.82;4.35;;;;;;;;;;4960317;28;20050;-86
2023/05/13 05:49:12;;;;;;;4.65;4.25;;;;;;;;;;4960033;28;20419;-86
2023/05/13 05:51:39;;;;;;;4.82;4.43;;;;;;;;;;4977035;28;20142;-86
2023/05/13 05:54:07;;;;;;;5.38;4.93;;;;;;;;;;4976796;28;20050;-86
2023/05/13 05:56:34;;;;;;;5.00;4.50;;;;;;;;;;4976814;28;20051;-86
2023/05/13 05:59:01;;;;;;;4.57;4.18;;;;;;;;;;4977109;28;20062;-86
2023/05/13 06:01:35;;;;;;;4.68;4.28;;;;;;;;;;4959509;28;20496;-86
2023/05/13 06:04:03;;;;;;;4.20;3.90;;;;;;;;;;4959914;28;20061;-86
2023/05/13 06:06:31;;;;;;;4.18;3.88;;;;;;;;;;4976682;28;20145;-85
2023/05/13 06:08:58;;;;;;;4.65;3.88;;;;;;;;;;4959525;28;20051;-86
2023/05/13 06:11:25;;;;;;;4.35;3.53;;;;;;;;;;4959391;28;20130;-85
2023/05/13 06:13:53;;;;;;;8.82;4.47;;;;;;;;;;4976576;28;20455;-85
2023/05/13 06:16:21;;;;;;;4.68;4.32;;;;;;;;;;4959400;28;20061;-86
2023/05/13 06:18:48;;;;;;;5.18;4.25;;;;;;;;;;4960311;28;20105;-85
2023/05/13 06:21:15;;;;;;;6.00;5.53;;;;;;;;;;4962382;28;20093;-86
2023/05/13 06:23:43;;;;;;;4.35;4.05;;;;;;;;;;4959037;28;20050;-86
2023/05/13 06:26:11;;;;;;;5.47;4.97;;;;;;;;;;4976494;28;20097;-85
2023/05/13 06:28:45;;;;;;;4.07;3.67;;;;;;;;;;4959204;28;20053;-86
2023/05/13 06:31:13;;;;;;;4.82;3.95;;;;;;;;;;4959211;28;20149;-86
2023/05/13 06:33:58;;;;;;;;;;;;;;;;;;;;;
2023/05/13 06:36:49;;;;;;;3.00;2.80;;;;;;;;;;4897545;29;20056;-85
2023/05/13 06:39:21;;;;;;;2.85;2.60;;;;;;;;;;4881938;29;20463;-86
2023/05/13 06:45:32;;;;;;;2.22;2.13;;;;;;;;;;4932642;23;20192;-85
2023/05/13 06:47:59;;;;;;;1.75;1.65;;;;;;;;;;5014823;28;20042;-84
2023/05/13 06:50:26;;;;;;;2.35;2.25;;;;;;;;;;5000274;28;20061;-86
2023/05/13 06:52:54;;;;;;;3.30;2.20;;;;;;;;;;4999943;28;20104;-84
2023/05/13 06:55:21;;;;;;;6.63;2.72;;;;;;;;;;4997524;28;20129;-85
2023/05/13 06:57:48;;;;;;;3.78;2.47;;;;;;;;;;5014779;28;20145;-86
2023/05/13 07:00:15;;;;;;;2.83;2.63;;;;;;;;;;5014526;28;20053;-85
2023/05/13 07:02:42;;;;;;;7.60;3.03;;;;;;;;;;4996989;28;20046;-85
2023/05/13 07:05:10;;;;;;;4.05;3.25;;;;;;;;;;4997401;28;20053;-85
2023/05/13 07:07:38;;;;;;;9.05;6.20;;;;;;;;;;4997322;28;20497;-84
2023/05/13 07:10:05;;;;;;;5.80;3.47;;;;;;;;;;5015609;28;20170;-83
2023/05/13 07:12:32;;;;;;;10.50;3.45;;;;;;;;;;5015166;28;20049;-83
2023/05/13 07:14:59;;;;;;;7.53;3.50;;;;;;;;;;4996892;28;20049;-83
2023/05/13 07:17:27;;;;;;;11.07;3.80;;;;;;;;;;4997892;28;20078;-83
2023/05/13 07:19:54;;;;;;;14.18;3.72;;;;;;;;;;5014142;28;20081;-83
2023/05/13 07:22:21;;;;;;;8.20;2.92;;;;;;;;;;4996877;28;20076;-83
2023/05/13 07:24:48;;;;;;;6.60;3.03;;;;;;;;;;4997702;28;20412;-84
2023/05/13 07:27:16;;;;;;;12.15;2.50;;;;;;;;;;5016018;28;20475;-84
2023/05/13 07:29:43;;;;;;;8.15;2.45;;;;;;;;;;4999115;28;20110;-83
2023/05/13 07:32:10;;;;;;;2.20;2.08;;;;;;;;;;5002943;28;20057;-84
2023/05/13 07:34:38;;;;;;;4.43;2.53;;;;;;;;;;5003740;28;20057;-84
2023/05/13 07:37:05;;;;;;;3.85;2.33;;;;;;;;;;5017371;28;20085;-84
2023/05/13 07:39:33;;;;;;;2.35;2.15;;;;;;;;;;5001846;28;20073;-84
2023/05/13 07:42:01;;;;;;;3.85;2.28;;;;;;;;;;5018151;28;20073;-84
2023/05/13 07:44:29;;;;;;;3.47;2.58;;;;;;;;;;4999929;28;20045;-83
2023/05/13 07:46:56;;;;;;;4.38;2.38;;;;;;;;;;5000587;28;20056;-83
2023/05/13 07:49:23;;;;;;;2.95;1.92;;;;;;;;;;4998738;28;20046;-84
2023/05/13 07:51:50;;;;;;;7.97;1.73;;;;;;;;;;4999319;28;20101;-83
2023/05/13 07:54:17;;;;;;;2.65;2.13;;;;;;;;;;5017183;28;20049;-84
2023/05/13 07:56:46;;;;;;;3.03;2.03;;;;;;;;;;4998819;28;20142;-84
2023/05/13 07:59:13;;;;;;;4.97;1.90;;;;;;;;;;5015961;28;20062;-83
2023/05/13 08:01:42;;;;;;;4.38;2.15;;;;;;;;;;4999834;28;20046;-84
2023/05/13 08:04:09;;;;;;;4.03;1.70;;;;;;;;;;4998258;28;20050;-84
2023/05/13 08:06:37;;;;;;;2.65;1.55;;;;;;;;;;4997792;28;20049;-84
2023/05/13 08:09:05;;;;;;;4.05;1.60;;;;;;;;;;4999138;28;20056;-83
2023/05/13 08:11:32;;;;;;;5.55;1.50;;;;;;;;;;4997905;28;20049;-83
2023/05/13 08:13:59;;;;;;;3.65;1.35;;;;;;;;;;4998471;28;20524;-84
2023/05/13 08:16:26;;;;;;;3.58;1.60;;;;;;;;;;5015778;28;20057;-84
2023/05/13 08:18:54;;;;;;;3.22;1.50;;;;;;;;;;4998326;28;20057;-84
2023/05/13 08:21:21;;;;;;;2.58;1.52;;;;;;;;;;4997326;28;20062;-84
2023/05/13 08:23:52;;;;;;;2.58;1.42;;;;;;;;;;4996139;28;20072;-83
2023/05/13 08:26:19;;;;;;;5.32;1.75;;;;;;;;;;4997056;28;20128;-83
2023/05/13 08:28:47;;;;;;;2.35;1.70;;;;;;;;;;4996094;28;20420;-82
2023/05/13 08:31:15;;;;;;;2.95;1.70;;;;;;;;;;4997045;28;20108;-83
2023/05/13 08:33:46;;;;;;;6.15;1.80;;;;;;;;;;4996598;28;20056;-84
2023/05/13 08:36:14;;;;;;;6.03;1.90;;;;;;;;;;5016661;28;20056;-83
2023/05/13 08:38:42;;;;;;;2.95;1.40;;;;;;;;;;4998617;28;20128;-81
2023/05/13 08:41:12;;;;;;;1.83;1.73;;;;;;;;;;5013549;28;20473;-85
2023/05/13 08:43:40;;;;;;;1.73;1.63;;;;;;;;;;5011101;28;20076;-84
2023/05/13 08:46:09;;;;;;;1.98;1.88;;;;;;;;;;5027021;28;20136;-84
2023/05/13 08:48:37;;;;;;;4.38;1.92;;;;;;;;;;5009257;28;20050;-84
2023/05/13 08:51:05;;;;;;;3.58;1.50;;;;;;;;;;5006912;28;20148;-83
2023/05/13 08:53:33;;;;;;;3.35;2.08;;;;;;;;;;5027871;28;20050;-84
2023/05/13 08:56:01;;;;;;;2.95;1.98;;;;;;;;;;5008481;28;20543;-83
2023/05/13 08:58:28;;;;;;;4.43;2.05;;;;;;;;;;5009697;28;20116;-84
2023/05/13 09:00:56;;;;;;;3.10;1.95;;;;;;;;;;5008889;28;20100;-84
2023/05/13 09:03:23;;;;;;;3.83;1.90;;;;;;;;;;5008518;28;20046;-83
2023/05/13 09:05:51;;;;;;;4.25;1.80;;;;;;;;;;5009340;28;20535;-83
2023/05/13 09:08:18;;;;;;;4.35;1.88;;;;;;;;;;5007301;28;20070;-84
2023/05/13 09:10:46;;;;;;;2.75;1.77;;;;;;;;;;5005862;28;20435;-83
2023/05/13 09:13:13;;;;;;;7.60;2.17;;;;;;;;;;5005874;28;20056;-84
2023/05/13 09:15:41;;;;;;;4.10;2.05;;;;;;;;;;5024881;28;20644;-84
2023/05/13 09:18:09;;;;;;;3.72;2.20;;;;;;;;;;5004864;28;20050;-84
2023/05/13 09:20:37;;;;;;;3.03;1.95;;;;;;;;;;5006843;28;20046;-83
2023/05/13 09:23:09;;;;;;;3.17;1.98;;;;;;;;;;5007711;28;20046;-84
2023/05/13 09:25:37;;;;;;;1.75;1.65;;;;;;;;;;5005798;28;20049;-85
2023/05/13 09:28:05;;;;;;;3.17;2.42;;;;;;;;;;5004670;28;20041;-84
2023/05/13 09:30:34;;;;;;;1.90;1.80;;;;;;;;;;5005424;28;20073;-84
2023/05/13 09:33:04;;;;;;;1.98;1.60;;;;;;;;;;5006906;28;20110;-84
2023/05/13 09:35:32;;;;;;;3.20;1.90;;;;;;;;;;5006707;28;20060;-84
2023/05/13 09:37:59;;;;;;;2.20;1.70;;;;;;;;;;5009496;28;20050;-83
2023/05/13 09:40:26;;;;;;;2.08;1.90;;;;;;;;;;5007955;28;20049;-84
2023/05/13 09:42:58;;;;;;;5.07;2.70;;;;;;;;;;5005463;28;20053;-83
2023/05/13 09:45:25;;;;;;;2.85;2.10;;;;;;;;;;5002249;28;20628;-85
2023/05/13 09:47:55;;;;;;;5.43;2.17;;;;;;;;;;5003736;28;20140;-85
2023/05/13 09:50:23;;;;;;;3.72;2.17;;;;;;;;;;5005486;28;20046;-85
2023/05/13 09:52:51;;;;;;;4.55;1.92;;;;;;;;;;5003493;28;20078;-86
2023/05/13 09:55:18;;;;;;;2.22;1.95;;;;;;;;;;5002004;28;20053;-85
2023/05/13 09:57:46;;;;;;;2.22;2.03;;;;;;;;;;5003426;28;20096;-84
2023/05/13 10:00:13;;;;;;;2.90;2.38;;;;;;;;;;5003787;28;20145;-84
2023/05/13 10:02:55;;;;;;;2.00;1.90;;;;;;;;;;5003674;28;20046;-86
2023/05/13 10:05:23;;;;;;;2.45;2.10;;;;;;;;;;5001864;28;20047;-85
2023/05/13 10:07:51;;;;;;;4.47;1.90;;;;;;;;;;5000783;28;20047;-84
2023/05/13 10:10:18;;;;;;;2.20;2.03;;;;;;;;;;4999861;28;20046;-85
2023/05/13 10:12:46;;;;;;;2.90;1.85;;;;;;;;;;5001381;28;20054;-85
2023/05/13 10:15:13;;;;;;;3.10;2.10;;;;;;;;;;5001880;28;20549;-85
2023/05/13 10:17:41;;;;;;;2.72;2.03;;;;;;;;;;5000652;28;20482;-85
2023/05/13 10:20:08;;;;;;;4.20;2.03;;;;;;;;;;5000627;28;20058;-85
2023/05/13 10:22:35;;;;;;;2.13;1.90;;;;;;;;;;5003365;28;20042;-85
2023/05/13 10:25:04;;;;;;;2.20;2.00;;;;;;;;;;5003479;28;20050;-85
2023/05/13 10:27:32;;;;;;;2.13;1.88;;;;;;;;;;5004179;28;20125;-85
2023/05/13 10:30:00;;;;;;;2.10;1.90;;;;;;;;;;5007380;28;20187;-84
2023/05/13 10:32:30;;;;;;;5.95;2.22;;;;;;;;;;5007762;28;20058;-85
2023/05/13 10:35:06;;;;;;;4.32;2.28;;;;;;;;;;5007913;28;20054;-84
2023/05/13 10:37:37;;;;;;;7.32;2.40;;;;;;;;;;5003887;28;20054;-84
2023/05/13 10:40:11;;;;;;;2.45;1.83;;;;;;;;;;5001172;28;20047;-84
2023/05/13 10:42:41;;;;;;;5.20;2.13;;;;;;;;;;5000505;28;20047;-84
2023/05/13 10:45:09;;;;;;;2.45;2.25;;;;;;;;;;5000822;28;20052;-84
2023/05/13 10:47:37;;;;;;;2.25;1.90;;;;;;;;;;5000680;28;20050;-84
2023/05/13 10:50:05;;;;;;;2.20;2.00;;;;;;;;;;5000767;28;20054;-84
2023/05/13 10:53:03;;;;;;;6.63;2.30;;;;;;;;;;5000215;28;20085;-84
2023/05/13 10:55:30;;;;;;;2.13;2.00;;;;;;;;;;4989789;28;20466;-84
2023/05/13 10:58:08;;;;;;;2.15;1.85;;;;;;;;;;5000277;28;20405;-85
2023/05/13 11:00:37;;;;;;;3.70;1.70;;;;;;;;;;5000542;28;20085;-84
2023/05/13 11:03:14;;;;;;;2.38;1.60;;;;;;;;;;5001000;28;20106;-85
2023/05/13 11:05:58;;;;;;;1.90;1.80;;;;;;;;;;4999191;28;20050;-84
2023/05/13 11:08:45;;;;;;;1.98;1.80;;;;;;;;;;5000013;28;20046;-84
2023/05/13 11:11:21;;;;;;;4.47;2.28;;;;;;;;;;4998856;28;20069;-84
2023/05/13 11:13:50;;;;;;;2.72;2.10;;;;;;;;;;4997042;28;20052;-84
2023/05/13 11:16:17;;;;;;;2.53;2.17;;;;;;;;;;4997914;28;20054;-83
2023/05/13 11:18:44;;;;;;;3.97;1.92;;;;;;;;;;4997711;28;20057;-83
2023/05/13 11:21:12;;;;;;;5.00;2.00;;;;;;;;;;4998391;28;20066;-84
2023/05/13 11:23:59;;;;;;;2.92;1.95;;;;;;;;;;4999567;28;20088;-84
2023/05/13 11:26:41;;;;;;;2.03;1.83;;;;;;;;;;4999113;28;20076;-83
2023/05/13 11:29:08;;;;;;;2.17;1.98;;;;;;;;;;5008517;28;20114;-85
2023/05/13 11:31:48;;;;;;;1.83;1.73;;;;;;;;;;5007103;28;20595;-84
2023/05/13 11:34:17;;;;;;;2.05;1.80;;;;;;;;;;5000601;28;20062;-82
2023/05/13 11:36:46;;;;;;;2.28;2.05;;;;;;;;;;4999041;28;20050;-84
2023/05/13 11:39:13;;;;;;;2.85;1.77;;;;;;;;;;4997691;28;20579;-84
2023/05/13 11:41:41;;;;;;;2.88;1.77;;;;;;;;;;4997824;28;20048;-83
2023/05/13 11:44:10;;;;;;;2.53;2.00;;;;;;;;;;4998943;28;20053;-81
2023/05/13 11:46:37;;;;;;;4.03;1.65;;;;;;;;;;5019321;28;20056;-85
2023/05/13 11:49:04;;;;;;;2.28;1.77;;;;;;;;;;5003803;28;20062;-84
2023/05/13 11:51:33;;;;;;;4.78;1.70;;;;;;;;;;5003915;28;20505;-83
2023/05/13 11:54:04;;;;;;;4.57;1.75;;;;;;;;;;5003160;28;20085;-84
2023/05/13 11:56:31;;;;;;;2.35;1.80;;;;;;;;;;5003934;28;20420;-82
2023/05/13 11:59:13;;;;;;;7.20;1.73;;;;;;;;;;5002906;28;20057;-84
2023/05/13 12:01:40;;;;;;;3.55;1.85;;;;;;;;;;4999785;28;20554;-85
2023/05/13 12:04:08;;;;;;;4.03;1.60;;;;;;;;;;5002504;28;20464;-82
2023/05/13 12:06:35;;;;;;;2.95;2.00;;;;;;;;;;5018802;28;20052;-83
2023/05/13 12:09:06;;;;;;;3.08;1.58;;;;;;;;;;4998124;28;20042;-83
2023/05/13 12:11:33;;;;;;;2.03;1.70;;;;;;;;;;4996905;28;20088;-84
2023/05/13 12:14:01;;;;;;;2.05;1.83;;;;;;;;;;4996276;28;20041;-83
2023/05/13 12:16:28;;;;;;;2.67;2.13;;;;;;;;;;4996245;28;20108;-83
2023/05/13 12:18:59;;;;;;;2.55;1.77;;;;;;;;;;5014462;28;20539;-84
2023/05/13 12:21:30;;;;;;;2.30;1.88;;;;;;;;;;4998464;28;20046;-83
2023/05/13 12:23:58;;;;;;;3.92;2.28;;;;;;;;;;4998241;28;20088;-84
2023/05/13 12:26:25;;;;;;;2.17;1.90;;;;;;;;;;4997682;28;20046;-83
2023/05/13 12:28:57;;;;;;;2.58;1.90;;;;;;;;;;4998244;28;20045;-85
2023/05/13 12:31:24;;;;;;;2.85;2.00;;;;;;;;;;4998716;28;20596;-85
2023/05/13 12:33:51;;;;;;;2.33;1.83;;;;;;;;;;4999506;28;20120;-85
2023/05/13 12:36:20;;;;;;;1.40;1.30;;;;;;;;;;5001208;28;20106;-85
2023/05/13 12:38:54;;;;;;;1.75;1.30;;;;;;;;;;5004388;28;20050;-85
2023/05/13 12:41:27;;;;;;;2.88;1.60;;;;;;;;;;5002482;28;20057;-84
2023/05/13 12:43:56;;;;;;;14.07;4.95;;;;;;;;;;5005052;28;20390;-84
2023/05/13 12:46:23;;;;;;;2.17;1.90;;;;;;;;;;5001320;28;20065;-84
2023/05/13 12:48:58;;;;;;;1.60;1.45;;;;;;;;;;5004836;28;20081;-85
2023/05/13 12:51:25;;;;;;;1.80;1.33;;;;;;;;;;5005138;28;20046;-85
2023/05/13 12:53:53;;;;;;;1.20;1.20;;;;;;;;;;5017847;28;20050;-85
2023/05/13 12:56:24;;;;;;;2.10;1.90;;;;;;;;;;4998843;28;20137;-84
2023/05/13 12:58:53;;;;;;;2.78;1.50;;;;;;;;;;5020972;28;20073;-85
2023/05/13 13:01:21;;;;;;;1.60;1.40;;;;;;;;;;5002023;28;20082;-83
2023/05/13 13:03:48;;;;;;;2.65;1.70;;;;;;;;;;5001609;28;20056;-84
2023/05/13 13:06:16;;;;;;;2.45;1.60;;;;;;;;;;5000331;28;20472;-84
2023/05/13 13:08:43;;;;;;;1.50;1.40;;;;;;;;;;4999243;28;20053;-85
2023/05/13 13:11:17;;;;;;;2.30;2.10;;;;;;;;;;4999538;28;20096;-83
2023/05/13 13:13:44;;;;;;;;;;;;;;;;;;5001134;28;20054;-84
2023/05/13 13:16:14;;;;;;;1.70;1.60;;;;;;;;;;5000708;28;19988;-83
2023/05/13 13:18:42;;;;;;;1.35;1.25;;;;;;;;;;5000137;28;20054;-85
2023/05/13 13:21:09;;;;;;;5.72;1.35;;;;;;;;;;5019223;28;20141;-84
2023/05/13 13:23:37;;;;;;;1.58;1.42;;;;;;;;;;5000384;28;20184;-85
2023/05/13 13:26:04;;;;;;;2.92;1.40;;;;;;;;;;5001930;28;20088;-84
2023/05/13 13:28:32;;;;;;;1.48;1.38;;;;;;;;;;5002436;28;20080;-85
2023/05/13 13:31:00;;;;;;;3.85;2.13;;;;;;;;;;5021102;28;20054;-85
2023/05/13 13:33:27;;;;;;;3.83;1.38;;;;;;;;;;5023138;28;20077;-86
2023/05/13 13:35:54;;;;;;;5.45;1.88;;;;;;;;;;5006545;28;20049;-85
2023/05/13 13:38:22;;;;;;;1.33;1.23;;;;;;;;;;5004031;28;20053;-85
2023/05/13 13:40:49;;;;;;;1.13;1.10;;;;;;;;;;5006741;28;20060;-84
2023/05/13 13:43:16;;;;;;;2.17;1.30;;;;;;;;;;5023066;28;20060;-84
2023/05/13 13:45:43;;;;;;;1.30;1.20;;;;;;;;;;5005143;28;20060;-85
2023/05/13 13:48:10;;;;;;;1.50;1.40;;;;;;;;;;5005682;28;20417;-85
2023/05/13 13:50:38;;;;;;;1.60;1.50;;;;;;;;;;5004752;28;20505;-85
2023/05/13 13:53:06;;;;;;;1.83;0.90;;;;;;;;;;5005581;28;20054;-84
2023/05/13 13:55:33;;;;;;;1.05;1.02;;;;;;;;;;5006116;28;20068;-84
2023/05/13 13:58:01;;;;;;;2.95;1.30;;;;;;;;;;5005786;28;20088;-85
2023/05/13 14:00:28;;;;;;;1.45;1.23;;;;;;;;;;5003738;28;20045;-85
2023/05/13 14:02:55;;;;;;;1.30;1.20;;;;;;;;;;5004533;28;20081;-84
2023/05/13 14:05:23;;;;;;;5.85;1.60;;;;;;;;;;5005590;28;20136;-84
2023/05/13 14:07:52;;;;;;;2.55;1.30;;;;;;;;;;5004437;28;20046;-84
2023/05/13 14:10:21;;;;;;;5.15;1.98;;;;;;;;;;5005979;28;20049;-85
2023/05/13 14:12:49;;;;;;;5.10;1.25;;;;;;;;;;5015129;28;20049;-85
2023/05/13 14:15:16;;;;;;;1.67;1.58;;;;;;;;;;5015554;28;20092;-86
2023/05/13 14:17:43;;;;;;;1.52;1.40;;;;;;;;;;5009547;28;20109;-85
2023/05/13 14:20:10;;;;;;;3.70;3.28;;;;;;;;;;5006575;28;20073;-85
2023/05/13 14:22:38;;;;;;;2.55;1.80;;;;;;;;;;5005612;28;20591;-85
2023/05/13 14:25:05;;;;;;;1.10;1.10;;;;;;;;;;5007782;28;20110;-85
2023/05/13 14:27:35;;;;;;;3.28;1.67;;;;;;;;;;5007493;28;20088;-86
2023/05/13 14:30:02;;;;;;;1.90;1.13;;;;;;;;;;5007545;28;20133;-85
2023/05/13 14:32:30;;;;;;;1.42;1.33;;;;;;;;;;5004984;28;20053;-84
2023/05/13 14:34:57;;;;;;;1.52;1.42;;;;;;;;;;5003420;28;20566;-85
2023/05/13 14:37:24;;;;;;;19.38;6.35;;;;;;;;;;4997753;28;20052;-84
2023/05/13 14:39:51;;;;;;;9.27;5.57;;;;;;;;;;4997533;28;20058;-84
2023/05/13 14:42:18;;;;;;;51.45;29.17;;;;;;;;;;4998776;28;20042;-85
2023/05/13 14:44:47;;;;;;;18.90;6.18;;;;;;;;;;5018400;28;20500;-84
2023/05/13 14:47:14;;;;;;;18.95;5.80;;;;;;;;;;5018695;28;20110;-84
2023/05/13 14:49:41;;;;;;;78.15;38.95;;;;;;;;;;5000970;28;20050;-85